African Highway — 3EOD8 — position and weather

sailwx.info

Track history (hours):
 
Tides and Currents Weather Stations Pressure Air Temp Water Temp Dewpoint Dewpoint Depression Visibility Wind Speed Wind Dir Waves Ship Positions

African Highway

Last reported at 2014-Dec-21 05:34 UTC. Time now 2014-Dec-21 08:33 UTC.
Position N 53°34' E 000°41'.

Length 154.5 m; beam 27.6 m.

Type: Cargo ship. MMSI: 353633000.

Date/timePositionNaut miles runAvg speedWind from/ knotsBaromVisibWave heightAir tempDewpointWater temp
2014-Dec-21 05:34N 53°34' E 000°41'1515.2
2014-Dec-21 04:33N 53°32' E 000°16'1110.5
2014-Dec-21 03:33N 53°35' W 000°01'2 1.9
2014-Dec-21 02:31N 53°35' W 000°04'0 0.0
2014-Dec-21 01:31N 53°35' W 000°04'0 0.0
2014-Dec-21 00:31N 53°35' W 000°04'0 0.0
2014-Dec-20 23:28N 53°35' W 000°04'0 0.0
2014-Dec-20 22:31N 53°35' W 000°04'0 0.0
2014-Dec-20 21:25N 53°35' W 000°04'0 0.0
2014-Dec-20 20:31N 53°35' W 000°04'0 0.0
2014-Dec-20 19:31N 53°35' W 000°04'0 0.0
2014-Dec-20 18:31N 53°35' W 000°04'0 0.0
2014-Dec-20 17:31N 53°35' W 000°04'0 0.1
2014-Dec-20 16:34N 53°35' W 000°04'2 1.7
2014-Dec-20 15:34N 53°35' W 000°01'1010.1
2014-Dec-20 14:34N 53°32' E 000°15'6 6.2
2014-Dec-20 13:34N 53°33' E 000°26'7 7.0
2014-Dec-20 12:34N 53°32' E 000°37'4 4.3
2014-Dec-20 11:33N 53°29' E 000°33'7 6.6
2014-Dec-20 10:33N 53°28' E 000°44'3 1.4
2014-Dec-20 08:32N 53°31' E 000°43'2 2.2
2014-Dec-20 07:33N 53°29' E 000°41'14010.0
2014-Dec-19 17:33N 53°28' E 004°36'9 9.2
2014-Dec-19 16:33N 53°32' E 004°49'8 8.4
2014-Dec-19 15:33N 53°35' E 005°03'10 9.8
2014-Dec-19 14:33N 53°38' E 005°19'1212.0
2014-Dec-19 13:33N 53°41' E 005°38'1413.5
2014-Dec-19 12:33N 53°46' E 005°59'1211.4
2014-Dec-19 11:33N 53°40' E 006°16'1110.6
2014-Dec-19 10:33N 53°37' E 006°33'1414.1
2014-Dec-19 09:33N 53°28' E 006°52'1111.0
2014-Dec-19 08:33N 53°19' E 007°03'5 4.8
2014-Dec-19 07:32N 53°20' E 007°12'0 0.3
2014-Dec-19 06:28N 53°21' E 007°12'0 0.0
2014-Dec-19 05:31N 53°21' E 007°12'0 0.0
2014-Dec-19 04:31N 53°21' E 007°12'0 0.0
2014-Dec-19 03:31N 53°21' E 007°12'0 0.0
2014-Dec-19 02:31N 53°21' E 007°12'0 0.0
2014-Dec-19 01:31N 53°21' E 007°12'0 0.0
2014-Dec-19 00:28N 53°21' E 007°12'0 0.0
2014-Dec-18 23:31N 53°21' E 007°12'0 0.0
2014-Dec-18 22:31N 53°21' E 007°12'0 0.0
2014-Dec-18 21:31N 53°21' E 007°12'0 0.0
2014-Dec-18 20:31N 53°21' E 007°12'0 0.0
2014-Dec-18 19:31N 53°21' E 007°12'0 0.0
2014-Dec-18 18:31N 53°21' E 007°12'0 0.0
2014-Dec-18 17:33N 53°21' E 007°12'0 0.0
2014-Dec-18 16:31N 53°21' E 007°12'0 0.0
2014-Dec-18 15:31N 53°21' E 007°12'0 0.0
2014-Dec-18 14:31N 53°21' E 007°12'0 0.0
2014-Dec-18 13:31N 53°21' E 007°12'0 0.0
2014-Dec-18 12:31N 53°21' E 007°12'0 0.0
2014-Dec-18 11:31N 53°21' E 007°12'0 0.0
2014-Dec-18 10:31N 53°21' E 007°12'0 0.4
2014-Dec-18 09:33N 53°20' E 007°11'3 3.0
2014-Dec-18 08:33N 53°20' E 007°07'1111.2
2014-Dec-18 07:34N 53°27' E 006°53'1615.7
2014-Dec-18 06:33N 53°37' E 006°31'1212.2
2014-Dec-18 05:33N 53°39' E 006°11'1615.7
2014-Dec-18 04:34N 53°37' E 005°45'1717.3
2014-Dec-18 03:34N 53°32' E 005°17'1817.7
2014-Dec-18 02:33N 53°26' E 004°49'1716.6
2014-Dec-18 01:33N 53°12' E 004°32'1717.3
2014-Dec-18 00:34N 52°57' E 004°18'1717.0
2014-Dec-17 23:34N 52°43' E 004°03'1717.0
2014-Dec-17 22:33N 52°30' E 003°45'1716.5
2014-Dec-17 21:33N 52°19' E 003°25'1616.3
2014-Dec-17 20:32N 52°08' E 003°05'1615.8
2014-Dec-17 19:32N 51°56' E 002°47'1515.1
2014-Dec-17 18:33N 51°50' E 002°25'1515.1
2014-Dec-17 17:33N 51°42' E 002°05'1514.9
2014-Dec-17 16:34N 51°34' E 001°44'1312.6
2014-Dec-17 15:34N 51°25' E 001°30'1312.7
2014-Dec-17 14:34N 51°29' E 001°11'1414.2
2014-Dec-17 13:34N 51°28' E 000°48'3 2.8
2014-Dec-17 12:33N 51°26' E 000°44'0 0.0
2014-Dec-17 11:33N 51°26' E 000°44'0 0.0
2014-Dec-17 10:34N 51°26' E 000°44'0 0.0
2014-Dec-17 09:30N 51°26' E 000°44'0 0.0
2014-Dec-17 08:34N 51°26' E 000°44'0 0.0
2014-Dec-17 07:33N 51°26' E 000°44'0 0.0
2014-Dec-17 06:33N 51°26' E 000°44'0 0.0
2014-Dec-17 05:33N 51°26' E 000°44'0 0.0
2014-Dec-17 04:33N 51°26' E 000°44'0 0.0
2014-Dec-17 03:33N 51°26' E 000°44'0 0.0
2014-Dec-17 02:33N 51°26' E 000°44'0 0.0
2014-Dec-17 01:33N 51°26' E 000°44'0 0.0
2014-Dec-17 00:33N 51°26' E 000°44'0 0.0
2014-Dec-16 23:33N 51°26' E 000°44'0 0.0
2014-Dec-16 22:33N 51°26' E 000°44'0 0.0
2014-Dec-16 21:33N 51°26' E 000°44'3 3.4
2014-Dec-16 20:33N 51°28' E 000°49'1312.8
2014-Dec-16 19:33N 51°29' E 001°09'1313.0
2014-Dec-16 18:33N 51°27' E 001°30'1312.8
2014-Dec-16 17:34N 51°34' E 001°47'1716.8
2014-Dec-16 16:34N 51°44' E 002°08'8216.0
2014-Dec-16 11:26N 52°45' E 003°40'1213.8
2014-Dec-16 10:33N 52°54' E 003°52'1313.4
2014-Dec-16 09:34N 53°03' E 004°09'1813.6
2014-Dec-16 08:15N 53°17' E 004°27'1014.5
2014-Dec-16 07:33N 53°25' E 004°36'1414.1
2014-Dec-16 06:33N 53°32' E 004°56'1414.5
2014-Dec-16 05:33N 53°38' E 005°19'1514.2
2014-Dec-16 04:30N 53°42' E 005°43'1313.5
2014-Dec-16 03:32N 53°45' E 006°05'1111.2
2014-Dec-16 02:33N 53°40' E 006°20'1411.6
2014-Dec-16 01:22N 53°33' E 006°41'911.7
2014-Dec-16 00:33N 53°27' E 006°53'1010.3
2014-Dec-15 23:33N 53°20' E 007°05'4 3.9
2014-Dec-15 22:33N 53°20' E 007°11'0 0.4
2014-Dec-15 21:33N 53°21' E 007°12'0 0.0
2014-Dec-15 20:33N 53°21' E 007°12'0 0.0
2014-Dec-15 19:33N 53°21' E 007°12'0 0.0
2014-Dec-15 18:33N 53°21' E 007°12'0 0.0
2014-Dec-15 17:33N 53°21' E 007°12'0 0.0
2014-Dec-15 16:33N 53°21' E 007°12'0 0.0
2014-Dec-15 15:33N 53°21' E 007°12'0 0.0
2014-Dec-15 14:33N 53°21' E 007°12'0 0.0
2014-Dec-15 13:33N 53°21' E 007°12'0 0.0
2014-Dec-15 12:30N 53°21' E 007°12'0 0.0
2014-Dec-15 11:33N 53°21' E 007°12'0 0.0
2014-Dec-15 10:33N 53°21' E 007°12'0 0.0
2014-Dec-15 09:31N 53°21' E 007°12'0 0.5
2014-Dec-15 08:33N 53°20' E 007°11'5 5.2
2014-Dec-15 07:33N 53°19' E 007°03'8 7.9
2014-Dec-15 06:33N 53°26' E 006°55'5 5.1
2014-Dec-15 05:33N 53°30' E 006°49'4 4.0
2014-Dec-15 04:33N 53°32' E 006°44'3 3.1
2014-Dec-15 03:33N 53°30' E 006°48'7 7.3
2014-Dec-15 02:33N 53°35' E 006°38'1111.4
2014-Dec-15 01:34N 53°37' E 006°19'8 8.1
2014-Dec-15 00:34N 53°37' E 006°06'1514.9
2014-Dec-14 23:33N 53°37' E 005°41'1312.8
2014-Dec-14 22:34N 53°49' E 005°31'1615.8
2014-Dec-14 21:34N 53°54' E 005°06'1615.7
2014-Dec-14 20:34N 53°58' E 004°40'14015.3
2014-Dec-14 11:23N 53°35' E 000°46'1315.9
2014-Dec-14 10:33N 53°32' E 000°25'1111.4
2014-Dec-14 09:33N 53°34' E 000°06'6 5.8
2014-Dec-14 08:33N 53°35' W 000°04'0 0.0
2014-Dec-14 07:33N 53°35' W 000°04'0 0.0
2014-Dec-14 06:33N 53°35' W 000°04'0 0.0
2014-Dec-14 05:33N 53°35' W 000°04'0 0.0
2014-Dec-14 04:33N 53°35' W 000°04'0 0.0
2014-Dec-14 03:33N 53°35' W 000°04'0 0.0
2014-Dec-14 02:33N 53°35' W 000°04'0 0.0
2014-Dec-14 01:33N 53°35' W 000°04'0 0.0
2014-Dec-14 00:33N 53°35' W 000°04'0 0.0
2014-Dec-13 23:33N 53°35' W 000°04'0 0.0
2014-Dec-13 22:33N 53°35' W 000°04'0 0.1
2014-Dec-13 21:33N 53°35' W 000°04'4 4.1
2014-Dec-13 20:33N 53°35' E 000°03'1010.0
2014-Dec-13 19:33N 53°33' E 000°20'6 5.6
2014-Dec-13 18:33N 53°33' E 000°29'3 3.4
2014-Dec-13 17:33N 53°32' E 000°34'4 3.6
2014-Dec-13 16:33N 53°30' E 000°39'4 4.2
2014-Dec-13 15:33N 53°29' E 000°46'14411.0
2014-Dec-13 02:29N 54°03' E 004°43'1212.4
2014-Dec-13 01:33N 53°60' E 005°02'1110.8
2014-Dec-13 00:31N 53°57' E 005°20'1010.3
2014-Dec-12 23:31N 53°55' E 005°37'1110.9
2014-Dec-12 22:32N 53°53' E 005°55'1111.2
2014-Dec-12 21:33N 53°51' E 006°13'1211.8
2014-Dec-12 20:33N 53°39' E 006°18'1211.7
2014-Dec-12 19:33N 53°35' E 006°37'1514.7
2014-Dec-12 18:33N 53°26' E 006°55'10 9.7
2014-Dec-12 17:33N 53°20' E 007°09'1 1.3
2014-Dec-12 16:33N 53°20' E 007°11'0 0.0
2014-Dec-12 15:33N 53°20' E 007°11'0 0.0
2014-Dec-12 14:33N 53°20' E 007°11'0 0.0
2014-Dec-12 13:33N 53°20' E 007°11'0 0.0
2014-Dec-12 12:33N 53°20' E 007°11'0 0.0
2014-Dec-12 11:27N 53°20' E 007°11'0 0.0
2014-Dec-12 10:30N 53°20' E 007°11'0 0.0
2014-Dec-12 09:33N 53°20' E 007°11'0 0.0
2014-Dec-12 08:33N 53°20' E 007°11'0 0.0
2014-Dec-12 07:33N 53°20' E 007°11'0 0.0
2014-Dec-12 06:33N 53°20' E 007°11'0 0.0
2014-Dec-12 05:33N 53°20' E 007°11'0 0.0
2014-Dec-12 04:33N 53°20' E 007°11'0 0.0
2014-Dec-12 03:33N 53°20' E 007°11'0 0.0
2014-Dec-12 02:33N 53°20' E 007°11'0 0.0
2014-Dec-12 01:33N 53°20' E 007°11'0 0.0
2014-Dec-12 00:33N 53°20' E 007°11'0 0.0
2014-Dec-11 23:33N 53°20' E 007°11'0 0.0
2014-Dec-11 22:33N 53°20' E 007°11'0 0.0
2014-Dec-11 21:33N 53°20' E 007°11'0 0.0
2014-Dec-11 20:33N 53°20' E 007°11'0 0.0
2014-Dec-11 19:30N 53°20' E 007°11'0 0.0
2014-Dec-11 18:33N 53°20' E 007°11'0 0.0
2014-Dec-11 17:33N 53°20' E 007°11'0 0.0
2014-Dec-11 16:33N 53°20' E 007°11'0 0.0
2014-Dec-11 15:33N 53°20' E 007°11'0 0.1
2014-Dec-11 14:33N 53°20' E 007°11'8 7.8
2014-Dec-11 13:34N 53°22' E 006°58'1615.6
2014-Dec-11 12:34N 53°34' E 006°40'1313.2
2014-Dec-11 11:33N 53°38' E 006°19'1 0.7
2014-Dec-11 10:33N 53°38' E 006°20'4 4.5
2014-Dec-11 09:33N 53°39' E 006°12'0 0.4
2014-Dec-11 08:33N 53°39' E 006°12'10 9.9
2014-Dec-11 07:33N 53°37' E 005°55'1414.2
2014-Dec-11 06:33N 53°34' E 005°32'1414.1
2014-Dec-11 05:34N 53°31' E 005°09'  
Track history (hours):
 
Tides and Currents Weather Stations Pressure Air Temp Water Temp Dewpoint Dewpoint Depression Visibility Wind Speed Wind Dir Waves Ship Positions

African Highway

Last reported at 2014-Dec-21 05:34 UTC. Time now 2014-Dec-21 08:33 UTC.
Position N 53°34' E 000°41'.

Length 154.5 m; beam 27.6 m.

Type: Cargo ship. MMSI: 353633000.

Date/timePositionNaut miles runAvg speedWind from/ knotsBaromVisibWave heightAir tempDewpointWater temp
2014-Dec-21 05:34N 53°34' E 000°41'1515.2
2014-Dec-21 04:33N 53°32' E 000°16'1110.5
2014-Dec-21 03:33N 53°35' W 000°01'2 1.9
2014-Dec-21 02:31N 53°35' W 000°04'0 0.0
2014-Dec-21 01:31N 53°35' W 000°04'0 0.0
2014-Dec-21 00:31N 53°35' W 000°04'0 0.0
2014-Dec-20 23:28N 53°35' W 000°04'0 0.0
2014-Dec-20 22:31N 53°35' W 000°04'0 0.0
2014-Dec-20 21:25N 53°35' W 000°04'0 0.0
2014-Dec-20 20:31N 53°35' W 000°04'0 0.0
2014-Dec-20 19:31N 53°35' W 000°04'0 0.0
2014-Dec-20 18:31N 53°35' W 000°04'0 0.0
2014-Dec-20 17:31N 53°35' W 000°04'0 0.1
2014-Dec-20 16:34N 53°35' W 000°04'2 1.7
2014-Dec-20 15:34N 53°35' W 000°01'1010.1
2014-Dec-20 14:34N 53°32' E 000°15'6 6.2
2014-Dec-20 13:34N 53°33' E 000°26'7 7.0
2014-Dec-20 12:34N 53°32' E 000°37'4 4.3
2014-Dec-20 11:33N 53°29' E 000°33'7 6.6
2014-Dec-20 10:33N 53°28' E 000°44'3 1.4
2014-Dec-20 08:32N 53°31' E 000°43'2 2.2
2014-Dec-20 07:33N 53°29' E 000°41'14010.0
2014-Dec-19 17:33N 53°28' E 004°36'9 9.2
2014-Dec-19 16:33N 53°32' E 004°49'8 8.4
2014-Dec-19 15:33N 53°35' E 005°03'10 9.8
2014-Dec-19 14:33N 53°38' E 005°19'1212.0
2014-Dec-19 13:33N 53°41' E 005°38'1413.5
2014-Dec-19 12:33N 53°46' E 005°59'1211.4
2014-Dec-19 11:33N 53°40' E 006°16'1110.6
2014-Dec-19 10:33N 53°37' E 006°33'1414.1
2014-Dec-19 09:33N 53°28' E 006°52'1111.0
2014-Dec-19 08:33N 53°19' E 007°03'5 4.8
2014-Dec-19 07:32N 53°20' E 007°12'0 0.3
2014-Dec-19 06:28N 53°21' E 007°12'0 0.0
2014-Dec-19 05:31N 53°21' E 007°12'0 0.0
2014-Dec-19 04:31N 53°21' E 007°12'0 0.0
2014-Dec-19 03:31N 53°21' E 007°12'0 0.0
2014-Dec-19 02:31N 53°21' E 007°12'0 0.0
2014-Dec-19 01:31N 53°21' E 007°12'0 0.0
2014-Dec-19 00:28N 53°21' E 007°12'0 0.0
2014-Dec-18 23:31N 53°21' E 007°12'0 0.0
2014-Dec-18 22:31N 53°21' E 007°12'0 0.0
2014-Dec-18 21:31N 53°21' E 007°12'0 0.0
2014-Dec-18 20:31N 53°21' E 007°12'0 0.0
2014-Dec-18 19:31N 53°21' E 007°12'0 0.0
2014-Dec-18 18:31N 53°21' E 007°12'0 0.0
2014-Dec-18 17:33N 53°21' E 007°12'0 0.0
2014-Dec-18 16:31N 53°21' E 007°12'0 0.0
2014-Dec-18 15:31N 53°21' E 007°12'0 0.0
2014-Dec-18 14:31N 53°21' E 007°12'0 0.0
2014-Dec-18 13:31N 53°21' E 007°12'0 0.0
2014-Dec-18 12:31N 53°21' E 007°12'0 0.0
2014-Dec-18 11:31N 53°21' E 007°12'0 0.0
2014-Dec-18 10:31N 53°21' E 007°12'0 0.4
2014-Dec-18 09:33N 53°20' E 007°11'3 3.0
2014-Dec-18 08:33N 53°20' E 007°07'1111.2
2014-Dec-18 07:34N 53°27' E 006°53'1615.7
2014-Dec-18 06:33N 53°37' E 006°31'1212.2
2014-Dec-18 05:33N 53°39' E 006°11'1615.7
2014-Dec-18 04:34N 53°37' E 005°45'1717.3
2014-Dec-18 03:34N 53°32' E 005°17'1817.7
2014-Dec-18 02:33N 53°26' E 004°49'1716.6
2014-Dec-18 01:33N 53°12' E 004°32'1717.3
2014-Dec-18 00:34N 52°57' E 004°18'1717.0
2014-Dec-17 23:34N 52°43' E 004°03'1717.0
2014-Dec-17 22:33N 52°30' E 003°45'1716.5
2014-Dec-17 21:33N 52°19' E 003°25'1616.3
2014-Dec-17 20:32N 52°08' E 003°05'1615.8
2014-Dec-17 19:32N 51°56' E 002°47'1515.1
2014-Dec-17 18:33N 51°50' E 002°25'1515.1
2014-Dec-17 17:33N 51°42' E 002°05'1514.9
2014-Dec-17 16:34N 51°34' E 001°44'1312.6
2014-Dec-17 15:34N 51°25' E 001°30'1312.7
2014-Dec-17 14:34N 51°29' E 001°11'1414.2
2014-Dec-17 13:34N 51°28' E 000°48'3 2.8
2014-Dec-17 12:33N 51°26' E 000°44'0 0.0
2014-Dec-17 11:33N 51°26' E 000°44'0 0.0
2014-Dec-17 10:34N 51°26' E 000°44'0 0.0
2014-Dec-17 09:30N 51°26' E 000°44'0 0.0
2014-Dec-17 08:34N 51°26' E 000°44'0 0.0
2014-Dec-17 07:33N 51°26' E 000°44'0 0.0
2014-Dec-17 06:33N 51°26' E 000°44'0 0.0
2014-Dec-17 05:33N 51°26' E 000°44'0 0.0
2014-Dec-17 04:33N 51°26' E 000°44'0 0.0
2014-Dec-17 03:33N 51°26' E 000°44'0 0.0
2014-Dec-17 02:33N 51°26' E 000°44'0 0.0
2014-Dec-17 01:33N 51°26' E 000°44'0 0.0
2014-Dec-17 00:33N 51°26' E 000°44'0 0.0
2014-Dec-16 23:33N 51°26' E 000°44'0 0.0
2014-Dec-16 22:33N 51°26' E 000°44'0 0.0
2014-Dec-16 21:33N 51°26' E 000°44'3 3.4
2014-Dec-16 20:33N 51°28' E 000°49'1312.8
2014-Dec-16 19:33N 51°29' E 001°09'1313.0
2014-Dec-16 18:33N 51°27' E 001°30'1312.8
2014-Dec-16 17:34N 51°34' E 001°47'1716.8
2014-Dec-16 16:34N 51°44' E 002°08'8216.0
2014-Dec-16 11:26N 52°45' E 003°40'1213.8
2014-Dec-16 10:33N 52°54' E 003°52'1313.4
2014-Dec-16 09:34N 53°03' E 004°09'1813.6
2014-Dec-16 08:15N 53°17' E 004°27'1014.5
2014-Dec-16 07:33N 53°25' E 004°36'1414.1
2014-Dec-16 06:33N 53°32' E 004°56'1414.5
2014-Dec-16 05:33N 53°38' E 005°19'1514.2
2014-Dec-16 04:30N 53°42' E 005°43'1313.5
2014-Dec-16 03:32N 53°45' E 006°05'1111.2
2014-Dec-16 02:33N 53°40' E 006°20'1411.6
2014-Dec-16 01:22N 53°33' E 006°41'911.7
2014-Dec-16 00:33N 53°27' E 006°53'1010.3
2014-Dec-15 23:33N 53°20' E 007°05'4 3.9
2014-Dec-15 22:33N 53°20' E 007°11'0 0.4
2014-Dec-15 21:33N 53°21' E 007°12'0 0.0
2014-Dec-15 20:33N 53°21' E 007°12'0 0.0
2014-Dec-15 19:33N 53°21' E 007°12'0 0.0
2014-Dec-15 18:33N 53°21' E 007°12'0 0.0
2014-Dec-15 17:33N 53°21' E 007°12'0 0.0
2014-Dec-15 16:33N 53°21' E 007°12'0 0.0
2014-Dec-15 15:33N 53°21' E 007°12'0 0.0
2014-Dec-15 14:33N 53°21' E 007°12'0 0.0
2014-Dec-15 13:33N 53°21' E 007°12'0 0.0
2014-Dec-15 12:30N 53°21' E 007°12'0 0.0
2014-Dec-15 11:33N 53°21' E 007°12'0 0.0
2014-Dec-15 10:33N 53°21' E 007°12'0 0.0
2014-Dec-15 09:31N 53°21' E 007°12'0 0.5
2014-Dec-15 08:33N 53°20' E 007°11'5 5.2
2014-Dec-15 07:33N 53°19' E 007°03'8 7.9
2014-Dec-15 06:33N 53°26' E 006°55'5 5.1
2014-Dec-15 05:33N 53°30' E 006°49'4 4.0
2014-Dec-15 04:33N 53°32' E 006°44'3 3.1
2014-Dec-15 03:33N 53°30' E 006°48'7 7.3
2014-Dec-15 02:33N 53°35' E 006°38'1111.4
2014-Dec-15 01:34N 53°37' E 006°19'8 8.1
2014-Dec-15 00:34N 53°37' E 006°06'1514.9
2014-Dec-14 23:33N 53°37' E 005°41'1312.8
2014-Dec-14 22:34N 53°49' E 005°31'1615.8
2014-Dec-14 21:34N 53°54' E 005°06'1615.7
2014-Dec-14 20:34N 53°58' E 004°40'14015.3
2014-Dec-14 11:23N 53°35' E 000°46'1315.9
2014-Dec-14 10:33N 53°32' E 000°25'1111.4
2014-Dec-14 09:33N 53°34' E 000°06'6 5.8
2014-Dec-14 08:33N 53°35' W 000°04'0 0.0
2014-Dec-14 07:33N 53°35' W 000°04'0 0.0
2014-Dec-14 06:33N 53°35' W 000°04'0 0.0
2014-Dec-14 05:33N 53°35' W 000°04'0 0.0
2014-Dec-14 04:33N 53°35' W 000°04'0 0.0
2014-Dec-14 03:33N 53°35' W 000°04'0 0.0
2014-Dec-14 02:33N 53°35' W 000°04'0 0.0
2014-Dec-14 01:33N 53°35' W 000°04'0 0.0
2014-Dec-14 00:33N 53°35' W 000°04'0 0.0
2014-Dec-13 23:33N 53°35' W 000°04'0 0.0
2014-Dec-13 22:33N 53°35' W 000°04'0 0.1
2014-Dec-13 21:33N 53°35' W 000°04'4 4.1
2014-Dec-13 20:33N 53°35' E 000°03'1010.0
2014-Dec-13 19:33N 53°33' E 000°20'6 5.6
2014-Dec-13 18:33N 53°33' E 000°29'3 3.4
2014-Dec-13 17:33N 53°32' E 000°34'4 3.6
2014-Dec-13 16:33N 53°30' E 000°39'4 4.2
2014-Dec-13 15:33N 53°29' E 000°46'14411.0
2014-Dec-13 02:29N 54°03' E 004°43'1212.4
2014-Dec-13 01:33N 53°60' E 005°02'1110.8
2014-Dec-13 00:31N 53°57' E 005°20'1010.3
2014-Dec-12 23:31N 53°55' E 005°37'1110.9
2014-Dec-12 22:32N 53°53' E 005°55'1111.2
2014-Dec-12 21:33N 53°51' E 006°13'1211.8
2014-Dec-12 20:33N 53°39' E 006°18'1211.7
2014-Dec-12 19:33N 53°35' E 006°37'1514.7
2014-Dec-12 18:33N 53°26' E 006°55'10 9.7
2014-Dec-12 17:33N 53°20' E 007°09'1 1.3
2014-Dec-12 16:33N 53°20' E 007°11'0 0.0
2014-Dec-12 15:33N 53°20' E 007°11'0 0.0
2014-Dec-12 14:33N 53°20' E 007°11'0 0.0
2014-Dec-12 13:33N 53°20' E 007°11'0 0.0
2014-Dec-12 12:33N 53°20' E 007°11'0 0.0
2014-Dec-12 11:27N 53°20' E 007°11'0 0.0
2014-Dec-12 10:30N 53°20' E 007°11'0 0.0
2014-Dec-12 09:33N 53°20' E 007°11'0 0.0
2014-Dec-12 08:33N 53°20' E 007°11'0 0.0
2014-Dec-12 07:33N 53°20' E 007°11'0 0.0
2014-Dec-12 06:33N 53°20' E 007°11'0 0.0
2014-Dec-12 05:33N 53°20' E 007°11'0 0.0
2014-Dec-12 04:33N 53°20' E 007°11'0 0.0
2014-Dec-12 03:33N 53°20' E 007°11'0 0.0
2014-Dec-12 02:33N 53°20' E 007°11'0 0.0
2014-Dec-12 01:33N 53°20' E 007°11'0 0.0
2014-Dec-12 00:33N 53°20' E 007°11'0 0.0
2014-Dec-11 23:33N 53°20' E 007°11'0 0.0
2014-Dec-11 22:33N 53°20' E 007°11'0 0.0
2014-Dec-11 21:33N 53°20' E 007°11'0 0.0
2014-Dec-11 20:33N 53°20' E 007°11'0 0.0
2014-Dec-11 19:30N 53°20' E 007°11'0 0.0
2014-Dec-11 18:33N 53°20' E 007°11'0 0.0
2014-Dec-11 17:33N 53°20' E 007°11'0 0.0
2014-Dec-11 16:33N 53°20' E 007°11'0 0.0
2014-Dec-11 15:33N 53°20' E 007°11'0 0.1
2014-Dec-11 14:33N 53°20' E 007°11'8 7.8
2014-Dec-11 13:34N 53°22' E 006°58'1615.6
2014-Dec-11 12:34N 53°34' E 006°40'1313.2
2014-Dec-11 11:33N 53°38' E 006°19'1 0.7
2014-Dec-11 10:33N 53°38' E 006°20'4 4.5
2014-Dec-11 09:33N 53°39' E 006°12'0 0.4
2014-Dec-11 08:33N 53°39' E 006°12'10 9.9
2014-Dec-11 07:33N 53°37' E 005°55'1414.2
2014-Dec-11 06:33N 53°34' E 005°32'1414.1
2014-Dec-11 05:34N 53°31' E 005°09'  

Dump ship's entire track history